createdAt,value
2022-09-23T00:01:38.265Z,13.10
2022-09-23T00:04:06.263Z,11.40
2022-09-23T00:06:34.109Z,17.05
2022-09-23T00:14:34.382Z,16.60
2022-09-23T00:17:02.191Z,13.73
2022-09-23T00:19:30.111Z,15.52
2022-09-23T00:21:57.911Z,10.40
2022-09-23T00:24:27.536Z,11.32
2022-09-23T00:26:55.340Z,13.15
2022-09-23T00:29:23.557Z,13.43
2022-09-23T00:31:51.447Z,11.43
2022-09-23T00:34:19.305Z,13.27
2022-09-23T00:36:47.144Z,11.52
2022-09-23T00:39:15.141Z,11.07
2022-09-23T00:41:44.318Z,12.15
2022-09-23T00:44:47.729Z,11.82
2022-09-23T00:47:20.372Z,9.03
2022-09-23T00:49:53.227Z,10.50
2022-09-23T00:52:24.545Z,9.88
2022-09-23T00:54:56.126Z,11.10
2022-09-23T00:57:26.773Z,10.82
2022-09-23T00:59:55.004Z,11.15
2022-09-23T01:02:23.830Z,11.18
2022-09-23T01:04:52.463Z,10.73
2022-09-23T01:07:20.641Z,8.70
2022-09-23T01:09:50.008Z,11.45
2022-09-23T01:12:30.359Z,11.05
2022-09-23T01:15:06.759Z,11.43
2022-09-23T01:17:42.718Z,11.52
2022-09-23T01:20:36.768Z,11.38
2022-09-23T01:23:16.517Z,14.07
2022-09-23T01:26:12.220Z,9.73
2022-09-23T01:29:03.388Z,12.02
2022-09-23T01:31:39.457Z,12.13
2022-09-23T01:34:12.216Z,10.95
2022-09-23T01:36:44.892Z,11.00
2022-09-23T01:39:20.010Z,11.50
2022-09-23T01:41:58.740Z,8.73
2022-09-23T01:44:33.296Z,11.23
2022-09-23T01:47:11.013Z,14.48
2022-09-23T01:49:47.268Z,10.82
2022-09-23T01:52:19.486Z,12.65
2022-09-23T01:54:54.080Z,9.65
2022-09-23T01:57:28.784Z,11.25
2022-09-23T02:00:01.407Z,10.07
2022-09-23T02:02:49.315Z,10.63
2022-09-23T02:05:23.338Z,9.60
2022-09-23T02:07:59.436Z,8.48
2022-09-23T02:10:34.062Z,8.23
2022-09-23T02:13:07.370Z,8.57
2022-09-23T02:15:40.201Z,9.93
2022-09-23T02:18:14.567Z,10.48
2022-09-23T02:20:44.302Z,10.52
2022-09-23T02:23:15.502Z,10.32
2022-09-23T02:25:54.395Z,11.82
2022-09-23T02:28:31.370Z,9.82
2022-09-23T02:31:08.709Z,7.95
2022-09-23T02:33:44.669Z,8.90
2022-09-23T02:36:20.317Z,7.88
2022-09-23T02:38:53.958Z,12.40
2022-09-23T02:41:27.448Z,8.35
2022-09-23T02:44:02.124Z,7.43
2022-09-23T02:46:30.941Z,12.70
2022-09-23T02:49:04.629Z,8.82
2022-09-23T02:51:34.437Z,8.27
2022-09-23T02:54:02.628Z,6.60
2022-09-23T02:56:30.526Z,11.80
2022-09-23T02:58:58.740Z,9.32
2022-09-23T03:01:38.895Z,9.32
2022-09-23T03:04:15.641Z,7.93
2022-09-23T03:06:53.265Z,9.30
2022-09-23T03:09:26.684Z,8.90
2022-09-23T03:14:31.823Z,8.55
2022-09-23T03:17:04.419Z,7.55
2022-09-23T03:19:41.095Z,9.60
2022-09-23T03:22:13.812Z,6.68
2022-09-23T03:24:46.929Z,8.65
2022-09-23T03:27:20.961Z,6.82
2022-09-23T03:29:51.083Z,8.25
2022-09-23T03:32:21.910Z,8.30
2022-09-23T03:34:53.535Z,9.65
2022-09-23T03:37:25.353Z,10.02
2022-09-23T03:39:58.179Z,7.43
2022-09-23T03:42:30.077Z,6.82
2022-09-23T03:44:59.252Z,9.10
2022-09-23T03:47:31.012Z,9.55
2022-09-23T03:50:00.222Z,7.50
2022-09-23T03:52:28.969Z,10.32
2022-09-23T03:54:56.818Z,7.95
2022-09-23T03:57:24.754Z,7.80
2022-09-23T03:59:52.911Z,9.60
2022-09-23T04:02:21.749Z,10.57
2022-09-23T04:04:49.673Z,9.63
2022-09-23T04:07:19.748Z,8.55
2022-09-23T04:09:47.582Z,8.50
2022-09-23T04:12:17.642Z,10.55
2022-09-23T04:14:46.169Z,12.13
2022-09-23T04:17:14.485Z,8.57
2022-09-23T04:19:42.366Z,8.25
2022-09-23T04:22:10.718Z,11.73
2022-09-23T04:24:39.945Z,10.07
2022-09-23T04:27:07.813Z,8.60
2022-09-23T04:29:35.603Z,16.88
2022-09-23T04:32:03.943Z,10.02
2022-09-23T04:34:31.771Z,9.65
2022-09-23T04:36:59.592Z,12.27
2022-09-23T04:39:27.504Z,9.90
2022-09-23T04:41:56.646Z,12.15
2022-09-23T04:44:25.608Z,8.52
2022-09-23T04:46:53.522Z,13.88
2022-09-23T04:49:21.568Z,7.43
2022-09-23T04:51:49.401Z,9.93
2022-09-23T04:54:17.269Z,9.35
2022-09-23T04:56:45.120Z,9.80
2022-09-23T04:59:14.402Z,8.57
2022-09-23T05:01:42.302Z,10.57
2022-09-23T05:04:13.891Z,9.05
2022-09-23T05:06:45.009Z,11.18
2022-09-23T05:09:16.465Z,9.23
2022-09-23T05:11:44.988Z,13.65
2022-09-23T05:14:14.574Z,12.82
2022-09-23T05:16:42.627Z,14.20
2022-09-23T05:19:11.750Z,10.20
2022-09-23T05:21:39.584Z,10.98
2022-09-23T05:24:07.789Z,13.07
2022-09-23T05:26:35.608Z,10.25
2022-09-23T05:29:03.514Z,16.90
2022-09-23T05:31:32.795Z,11.20
2022-09-23T05:34:02.452Z,10.57
2022-09-23T05:36:36.875Z,8.38
2022-09-23T05:39:06.757Z,10.43
2022-09-23T05:41:34.962Z,11.13
2022-09-23T05:44:03.262Z,11.20
2022-09-23T05:46:33.160Z,14.90
2022-09-23T05:49:03.510Z,10.13
2022-09-23T05:51:32.730Z,9.23
2022-09-23T05:54:02.939Z,9.98
2022-09-23T05:56:32.347Z,12.55
2022-09-23T05:59:01.446Z,9.23
2022-09-23T06:01:32.263Z,12.35
2022-09-23T06:04:03.372Z,13.45
2022-09-23T06:06:33.377Z,13.18
2022-09-23T06:09:02.010Z,9.90
2022-09-23T06:11:32.244Z,9.32
2022-09-23T06:14:02.022Z,9.13
2022-09-23T06:16:31.692Z,11.98
2022-09-23T06:19:05.906Z,15.65
2022-09-23T06:21:36.186Z,12.63
2022-09-23T06:24:05.066Z,11.43
2022-09-23T06:26:35.167Z,11.65
2022-09-23T06:29:04.399Z,11.20
2022-09-23T06:31:33.059Z,14.43
2022-09-23T06:34:11.083Z,11.90
2022-09-23T06:36:43.786Z,11.43
2022-09-23T06:39:13.075Z,11.77
2022-09-23T06:41:40.922Z,14.32
2022-09-23T06:44:13.299Z,12.43
2022-09-23T06:46:41.506Z,10.63
2022-09-23T06:49:11.872Z,13.65
2022-09-23T06:51:40.170Z,11.60
2022-09-23T06:54:08.236Z,10.75
2022-09-23T06:56:39.236Z,11.55
2022-09-23T06:59:08.286Z,12.25
2022-09-23T07:01:36.308Z,10.82
2022-09-23T07:04:04.513Z,10.38
2022-09-23T07:06:33.858Z,10.00
2022-09-23T07:09:02.022Z,9.98
2022-09-23T07:11:30.325Z,8.32
2022-09-23T07:13:58.107Z,14.80
2022-09-23T07:16:26.160Z,8.55
2022-09-23T07:18:54.185Z,9.25
2022-09-23T07:21:22.029Z,8.32
2022-09-23T07:23:52.005Z,16.00
2022-09-23T07:26:21.438Z,10.13
2022-09-23T07:28:54.053Z,11.20
2022-09-23T07:31:36.542Z,8.47
2022-09-23T07:34:08.473Z,9.65
2022-09-23T07:36:37.763Z,9.40
2022-09-23T07:39:07.363Z,10.40
2022-09-23T07:41:37.123Z,8.57
2022-09-23T07:44:06.257Z,9.55
2022-09-23T07:46:36.036Z,9.13
2022-09-23T07:49:05.247Z,7.88
2022-09-23T07:51:36.616Z,9.60
2022-09-23T07:54:08.770Z,8.75
2022-09-23T07:56:38.190Z,9.40
2022-09-23T07:59:08.776Z,11.10
2022-09-23T08:01:39.200Z,8.27
2022-09-23T08:04:09.634Z,8.25
2022-09-23T08:06:41.855Z,8.68
2022-09-23T08:09:11.962Z,12.45
2022-09-23T08:11:42.375Z,17.98
2022-09-23T08:14:10.823Z,12.88
2022-09-23T08:16:39.793Z,8.20
2022-09-23T08:19:08.110Z,8.80
2022-09-23T08:21:37.582Z,9.07
2022-09-23T08:24:05.851Z,9.38
2022-09-23T08:26:36.493Z,6.68
2022-09-23T08:29:05.031Z,8.20
2022-09-23T08:31:33.646Z,9.57
2022-09-23T08:34:01.639Z,6.85
2022-09-23T08:36:29.622Z,14.60
2022-09-23T08:38:57.463Z,6.50
2022-09-23T08:41:32.925Z,6.60
2022-09-23T08:44:05.815Z,8.40
2022-09-23T08:46:38.717Z,6.90
2022-09-23T08:49:08.192Z,3.30
2022-09-23T08:51:42.581Z,6.45
2022-09-23T08:54:11.276Z,5.85
2022-09-23T08:56:39.845Z,5.05
2022-09-23T08:59:15.844Z,5.30
2022-09-23T09:01:45.800Z,4.15
2022-09-23T09:04:18.370Z,5.38
2022-09-23T09:06:54.024Z,4.20
2022-09-23T09:09:29.628Z,2.85
2022-09-23T09:12:03.944Z,3.85
2022-09-23T09:14:44.759Z,4.82
2022-09-23T09:17:22.042Z,4.35
2022-09-23T09:19:56.320Z,4.63
2022-09-23T09:22:43.445Z,6.13
2022-09-23T09:25:24.639Z,3.47
2022-09-23T09:27:53.741Z,4.90
2022-09-23T09:30:24.994Z,5.47
2022-09-23T09:32:58.025Z,7.63
2022-09-23T09:35:35.093Z,3.47
2022-09-23T09:38:03.488Z,6.85
2022-09-23T09:40:31.448Z,6.80
2022-09-23T09:42:59.358Z,4.20
2022-09-23T09:45:57.523Z,3.30
2022-09-23T09:48:33.109Z,4.55
2022-09-23T09:51:19.410Z,4.25
2022-09-23T09:53:47.272Z,3.75
2022-09-23T09:56:17.353Z,4.65
2022-09-23T09:58:48.884Z,3.15
2022-09-23T10:01:23.670Z,2.88
2022-09-23T10:03:55.716Z,1.73
2022-09-23T10:09:13.628Z,3.75
2022-09-23T10:11:42.289Z,2.38
2022-09-23T10:14:17.510Z,1.73
2022-09-23T10:17:02.314Z,1.50
2022-09-23T10:19:30.618Z,3.80
2022-09-23T10:22:00.814Z,6.18
2022-09-23T10:24:32.189Z,3.15
2022-09-23T10:27:04.399Z,5.30
2022-09-23T10:29:33.705Z,2.38
2022-09-23T10:32:26.592Z,6.70
2022-09-23T10:34:57.054Z,2.85
2022-09-23T10:37:36.909Z,4.72
2022-09-23T10:40:35.812Z,3.00
2022-09-23T10:43:37.457Z,3.08
2022-09-23T10:46:26.710Z,2.90
2022-09-23T10:49:12.269Z,1.65
2022-09-23T10:51:48.656Z,3.40
2022-09-23T10:54:26.495Z,2.58
2022-09-23T10:57:01.104Z,1.80
2022-09-23T10:59:55.939Z,2.67
2022-09-23T11:02:42.037Z,2.63
2022-09-23T11:05:35.991Z,2.92
2022-09-23T11:08:20.170Z,2.63
2022-09-23T11:10:59.110Z,2.60
2022-09-23T11:13:45.027Z,3.33
2022-09-23T11:16:25.913Z,2.40
2022-09-23T11:19:11.864Z,2.10
2022-09-23T11:22:00.616Z,2.08
2022-09-23T11:24:50.137Z,5.35
2022-09-23T11:27:30.473Z,3.85
2022-09-23T11:30:10.829Z,4.50
2022-09-23T11:33:14.163Z,1.90
2022-09-23T11:35:47.692Z,2.80
2022-09-23T11:40:54.838Z,1.52
2022-09-23T11:43:25.265Z,5.90
2022-09-23T11:45:59.547Z,2.17
2022-09-23T11:48:33.567Z,1.45
2022-09-23T11:51:05.969Z,7.32
2022-09-23T11:53:44.153Z,0.90
2022-09-23T11:56:32.832Z,6.10
2022-09-23T11:59:10.458Z,2.17
2022-09-23T12:01:46.609Z,1.48
2022-09-23T12:04:25.872Z,5.95
2022-09-23T12:07:01.028Z,2.20
2022-09-23T12:09:57.878Z,2.05
2022-09-23T12:12:36.702Z,2.45
2022-09-23T12:15:12.412Z,2.17
2022-09-23T12:17:56.225Z,1.15
2022-09-23T12:20:53.749Z,1.52
2022-09-23T12:23:49.829Z,1.83
2022-09-23T12:26:21.957Z,1.63
2022-09-23T12:28:52.445Z,3.25
2022-09-23T12:31:30.518Z,1.30
2022-09-23T12:34:00.859Z,1.73
2022-09-23T12:36:34.740Z,1.35
2022-09-23T12:39:06.053Z,2.28
2022-09-23T12:41:39.435Z,1.92
2022-09-23T12:47:38.287Z,2.15
2022-09-23T12:50:47.535Z,2.28
2022-09-23T12:53:51.976Z,2.25
2022-09-23T12:56:21.364Z,1.73
2022-09-23T12:58:59.606Z,3.85
2022-09-23T13:01:28.375Z,1.60
2022-09-23T13:04:16.890Z,1.95
2022-09-23T13:06:54.007Z,6.80
2022-09-23T13:09:28.622Z,2.03
2022-09-23T13:12:00.970Z,1.73
2022-09-23T13:14:32.572Z,2.90
2022-09-23T13:17:01.436Z,4.03
2022-09-23T13:19:49.883Z,4.40
2022-09-23T13:22:43.628Z,1.40
2022-09-23T13:25:20.646Z,3.33
2022-09-23T13:27:51.569Z,1.85
2022-09-23T13:30:25.915Z,3.72
2022-09-23T13:33:03.866Z,4.55
2022-09-23T13:35:35.474Z,2.83
2022-09-23T13:38:12.703Z,5.55
2022-09-23T13:40:42.504Z,5.93
2022-09-23T13:43:17.159Z,2.00
2022-09-23T13:45:45.096Z,3.72
2022-09-23T13:48:15.804Z,1.25
2022-09-23T13:50:48.497Z,2.13
2022-09-23T13:53:26.506Z,3.05
2022-09-23T13:56:02.544Z,2.40
2022-09-23T13:58:32.151Z,1.70
2022-09-23T14:01:01.159Z,1.40
2022-09-23T14:03:36.203Z,1.88
2022-09-23T14:06:08.706Z,3.53
2022-09-23T14:08:40.133Z,3.70
2022-09-23T14:11:08.225Z,1.10
2022-09-23T14:13:42.524Z,1.95
2022-09-23T14:16:14.842Z,4.28
2022-09-23T14:18:46.296Z,5.83
2022-09-23T14:21:35.110Z,2.05
2022-09-23T14:24:21.324Z,1.45
2022-09-23T14:26:52.998Z,2.88
2022-09-23T14:29:24.298Z,4.00
2022-09-23T14:31:57.705Z,1.50
2022-09-23T14:34:46.428Z,2.08
2022-09-23T14:37:42.084Z,2.47
2022-09-23T14:40:15.217Z,3.53
2022-09-23T14:42:46.350Z,4.53
2022-09-23T14:45:17.875Z,3.83
2022-09-23T14:47:49.617Z,3.83
2022-09-23T14:50:38.864Z,2.53
2022-09-23T14:53:27.944Z,1.23
2022-09-23T14:56:10.837Z,2.05
2022-09-23T14:58:49.473Z,7.33
2022-09-23T15:01:36.021Z,5.38
2022-09-23T15:04:18.842Z,2.03
2022-09-23T15:06:51.272Z,3.07
2022-09-23T15:09:24.598Z,1.07
2022-09-23T15:11:57.827Z,5.32
2022-09-23T15:14:44.877Z,6.38
2022-09-23T15:17:26.251Z,2.35
2022-09-23T15:19:56.959Z,3.25
2022-09-23T15:22:25.886Z,2.65
2022-09-23T15:25:09.192Z,2.67
2022-09-23T15:27:38.399Z,6.13
2022-09-23T15:30:18.877Z,1.35
2022-09-23T15:32:47.676Z,2.40
2022-09-23T15:35:18.702Z,1.85
2022-09-23T15:37:49.128Z,1.48
2022-09-23T15:40:22.686Z,3.08
2022-09-23T15:42:55.406Z,4.43
2022-09-23T15:45:30.846Z,1.23
2022-09-23T15:48:03.332Z,3.85
2022-09-23T15:50:31.391Z,4.10
2022-09-23T15:52:59.460Z,2.47
2022-09-23T15:55:27.291Z,1.90
2022-09-23T15:57:56.552Z,3.63
2022-09-23T16:00:24.667Z,2.50
2022-09-23T16:02:54.326Z,2.22
2022-09-23T16:05:27.288Z,5.15
2022-09-23T16:07:55.298Z,2.53
2022-09-23T16:10:24.177Z,1.40
2022-09-23T16:12:54.772Z,2.50
2022-09-23T16:15:25.428Z,2.58
2022-09-23T16:17:53.273Z,2.40
2022-09-23T16:20:21.109Z,3.70
2022-09-23T16:22:54.334Z,3.17
2022-09-23T16:25:27.314Z,4.63
2022-09-23T16:27:55.379Z,2.58
2022-09-23T16:30:25.199Z,2.22
2022-09-23T16:32:53.053Z,3.35
2022-09-23T16:35:21.546Z,3.67
2022-09-23T16:37:49.709Z,3.58
2022-09-23T16:40:19.809Z,4.00
2022-09-23T16:42:48.366Z,2.70
2022-09-23T16:45:18.161Z,3.63
2022-09-23T16:47:48.962Z,2.47
2022-09-23T16:50:18.447Z,5.07
2022-09-23T16:52:46.904Z,3.80
2022-09-23T16:55:16.048Z,4.65
2022-09-23T16:57:44.247Z,4.30
2022-09-23T17:00:33.303Z,3.22
2022-09-23T17:03:21.095Z,5.00
2022-09-23T17:05:50.135Z,3.90
2022-09-23T17:08:18.757Z,5.20
2022-09-23T17:10:57.098Z,3.58
2022-09-23T17:13:26.455Z,7.35
2022-09-23T17:15:55.031Z,4.32
2022-09-23T17:18:24.562Z,5.60
2022-09-23T17:21:01.137Z,3.50
2022-09-23T17:23:31.343Z,5.85
2022-09-23T17:25:59.771Z,5.63
2022-09-23T17:28:27.731Z,6.63
2022-09-23T17:31:00.101Z,5.80
2022-09-23T17:33:31.413Z,11.30
2022-09-23T17:36:00.240Z,6.40
2022-09-23T17:38:29.577Z,5.22
2022-09-23T17:40:59.030Z,8.98
2022-09-23T17:43:28.525Z,5.15
2022-09-23T17:45:58.328Z,6.40
2022-09-23T17:48:26.311Z,6.13
2022-09-23T17:51:00.940Z,6.03
2022-09-23T17:53:31.048Z,4.00
2022-09-23T17:56:00.291Z,8.68
2022-09-23T17:58:29.398Z,7.28
2022-09-23T18:00:58.194Z,7.60
2022-09-23T18:03:28.187Z,7.25
2022-09-23T18:05:56.396Z,8.05
2022-09-23T18:08:25.559Z,6.68
2022-09-23T18:10:53.516Z,8.60
2022-09-23T18:13:21.394Z,6.85
2022-09-23T18:15:49.256Z,10.88
2022-09-23T18:18:17.077Z,5.82
2022-09-23T18:20:52.168Z,8.10
2022-09-23T18:23:24.000Z,13.90
2022-09-23T18:25:55.129Z,6.85
2022-09-23T18:28:22.985Z,8.23
2022-09-23T18:30:55.127Z,7.88
2022-09-23T18:33:23.648Z,10.38
2022-09-23T18:35:52.813Z,12.23
2022-09-23T18:38:21.470Z,9.18
2022-09-23T18:40:55.694Z,8.45
2022-09-23T18:43:40.504Z,11.23
2022-09-23T18:46:13.367Z,9.88
2022-09-23T18:48:59.665Z,9.10
2022-09-23T18:51:29.304Z,14.23
2022-09-23T18:53:58.610Z,8.95
2022-09-23T18:56:29.620Z,10.25
2022-09-23T18:58:59.088Z,10.60
2022-09-23T19:01:27.450Z,9.20
2022-09-23T19:03:56.631Z,9.38
2022-09-23T19:06:25.146Z,11.18
2022-09-23T19:08:54.426Z,11.57
2022-09-23T19:11:23.813Z,9.32
2022-09-23T19:13:55.285Z,10.63
2022-09-23T19:16:25.731Z,11.73
2022-09-23T19:18:54.492Z,7.97
2022-09-23T19:21:23.577Z,12.55
2022-09-23T19:23:53.215Z,10.40
2022-09-23T19:26:22.770Z,11.20
2022-09-23T19:28:51.086Z,10.77
2022-09-23T19:31:22.237Z,8.50
2022-09-23T19:33:56.660Z,8.60
2022-09-23T19:36:26.669Z,13.70
2022-09-23T19:38:55.719Z,16.45
2022-09-23T19:41:24.205Z,11.00
2022-09-23T19:43:54.283Z,11.13
2022-09-23T19:46:23.143Z,12.73
2022-09-23T19:48:51.071Z,13.57
2022-09-23T19:51:20.264Z,9.73
2022-09-23T19:53:48.182Z,11.27
2022-09-23T19:56:18.004Z,10.93
2022-09-23T19:58:48.245Z,10.40
2022-09-23T20:01:17.134Z,15.85
2022-09-23T20:03:45.252Z,13.35
2022-09-23T20:06:13.139Z,11.65
2022-09-23T20:08:43.548Z,10.88
2022-09-23T20:11:13.246Z,10.52
2022-09-23T20:13:42.581Z,12.70
2022-09-23T20:16:12.172Z,11.38
2022-09-23T20:18:40.561Z,9.15
2022-09-23T20:21:11.671Z,9.60
2022-09-23T20:23:39.633Z,10.05
2022-09-23T20:26:26.795Z,10.15
2022-09-23T20:28:55.032Z,10.85
2022-09-23T20:31:25.101Z,11.98
2022-09-23T20:33:55.492Z,10.50
2022-09-23T20:36:23.323Z,9.50
2022-09-23T20:38:54.398Z,8.70
2022-09-23T20:41:24.048Z,7.72
2022-09-23T20:43:54.520Z,10.60
2022-09-23T20:46:23.926Z,9.48
2022-09-23T20:48:51.928Z,11.75
2022-09-23T20:51:19.843Z,12.98
2022-09-23T20:53:51.762Z,12.75
2022-09-23T20:56:20.069Z,9.40
2022-09-23T20:58:50.918Z,8.63
2022-09-23T21:01:19.370Z,9.57
2022-09-23T21:03:48.795Z,11.20
2022-09-23T21:06:18.948Z,8.02
2022-09-23T21:08:47.529Z,11.57
2022-09-23T21:11:17.881Z,7.80
2022-09-23T21:13:51.313Z,10.82
2022-09-23T21:18:48.063Z,10.50
2022-09-23T21:21:19.391Z,10.60
2022-09-23T21:23:47.963Z,7.22
2022-09-23T21:26:18.639Z,12.63
2022-09-23T21:28:48.323Z,8.40
2022-09-23T21:31:23.785Z,9.05
2022-09-23T21:33:55.282Z,8.23
2022-09-23T21:36:24.759Z,12.85
2022-09-23T21:38:53.810Z,10.23
2022-09-23T21:41:23.640Z,13.15
2022-09-23T21:43:52.145Z,8.65
2022-09-23T21:46:22.126Z,8.90
2022-09-23T21:48:53.246Z,9.88
2022-09-23T21:51:24.781Z,8.30
2022-09-23T21:53:54.264Z,8.38
2022-09-23T21:56:24.272Z,7.00
2022-09-23T21:58:53.980Z,9.43
2022-09-23T22:01:25.203Z,10.00
2022-09-23T22:03:54.984Z,10.40
2022-09-23T22:06:26.799Z,8.30
2022-09-23T22:08:59.074Z,7.47
2022-09-23T22:11:58.617Z,7.03
2022-09-23T22:14:27.210Z,6.65
2022-09-23T22:17:00.469Z,8.07
2022-09-23T22:19:34.781Z,8.95
2022-09-23T22:22:03.689Z,6.60
2022-09-23T22:24:31.491Z,11.23
2022-09-23T22:26:59.392Z,8.73
2022-09-23T22:29:47.057Z,8.95
2022-09-23T22:32:41.350Z,7.35
2022-09-23T22:35:09.980Z,7.07
2022-09-23T22:37:38.443Z,12.32
2022-09-23T22:40:08.336Z,9.02
2022-09-23T22:42:36.534Z,12.00
2022-09-23T22:45:05.708Z,9.43
2022-09-23T22:47:37.667Z,8.43
2022-09-23T22:50:05.941Z,6.47
2022-09-23T22:52:33.905Z,8.32
2022-09-23T22:55:01.899Z,8.88
2022-09-23T22:57:29.781Z,10.60
2022-09-23T22:59:57.621Z,9.40
2022-09-23T23:02:25.489Z,8.52
2022-09-23T23:04:56.174Z,9.82
2022-09-23T23:07:24.689Z,10.20
2022-09-23T23:09:53.276Z,8.77
2022-09-23T23:12:21.548Z,8.48
2022-09-23T23:14:50.175Z,8.15
2022-09-23T23:17:18.819Z,6.70
2022-09-23T23:19:46.746Z,8.07
2022-09-23T23:22:15.955Z,8.85
2022-09-23T23:24:43.992Z,10.27
2022-09-23T23:27:11.847Z,12.52
2022-09-23T23:29:39.647Z,7.97
2022-09-23T23:32:07.694Z,11.32
2022-09-23T23:34:35.760Z,8.40
2022-09-23T23:37:03.599Z,9.65
2022-09-23T23:39:32.836Z,8.82
2022-09-23T23:42:00.698Z,8.43
2022-09-23T23:44:31.092Z,8.70
2022-09-23T23:46:59.014Z,7.60
2022-09-23T23:49:28.635Z,9.15
2022-09-23T23:51:56.530Z,7.88
2022-09-23T23:54:24.548Z,8.55
2022-09-23T23:56:53.804Z,8.00
2022-09-23T23:59:21.846Z,7.18
